Time;durP1;ratioP1;P1;durP2;ratioP2;P2;SDS_P1;SDS_P2;PMS_P1;PMS_P2;Temp;Humidity;BMP_temperature;BMP_pressure;BME280_temperature;BME280_humidity;BME280_pressure;Samples;Min_cycle;Max_cycle;Signal;HPM_P1;HPM_P2
2021/11/20 00:01:06;;;;;;;27.50;14.80;;;;;;;3.43;83.86;97910.21;107892;1274;72172;-67
2021/11/20 00:03:38;;;;;;;28.90;17.10;;;;;;;3.42;83.90;97912.83;108054;1275;67840;-67
2021/11/20 00:06:07;;;;;;;37.30;20.70;;;;;;;3.40;84.20;97911.70;108009;1271;68611;-67
2021/11/20 00:08:36;;;;;;;39.30;23.80;;;;;;;3.36;84.43;97907.02;108025;1272;59773;-67
2021/11/20 00:11:08;;;;;;;36.70;20.30;;;;;;;3.33;84.73;97903.14;107990;1275;59720;-67
2021/11/20 00:13:37;;;;;;;39.80;23.00;;;;;;;3.32;84.61;97905.08;108040;1274;70751;-66
2021/11/20 00:16:07;;;;;;;31.50;18.40;;;;;;;3.32;84.79;97908.85;107992;1275;69207;-67
2021/11/20 00:18:38;;;;;;;29.90;20.50;;;;;;;3.34;84.88;97911.91;108013;1272;69550;-67
2021/11/20 00:21:29;;;;;;;36.20;23.20;;;;;;;3.35;84.95;97914.11;108061;1272;59750;-68
2021/11/20 00:24:15;;;;;;;40.40;22.60;;;;;;;3.36;84.82;97918.03;108004;1275;59713;-67
2021/11/20 00:26:45;;;;;;;30.00;18.10;;;;;;;3.37;84.78;97925.55;108067;1272;71367;-66
2021/11/20 00:31:50;;;;;;;30.90;19.80;;;;;;;3.40;84.67;97919.77;108024;1272;69499;-66
2021/11/20 00:34:25;;;;;;;34.80;20.70;;;;;;;3.42;84.58;97917.48;107993;1272;59786;-66
2021/11/20 00:36:55;;;;;;;41.60;24.40;;;;;;;3.43;84.62;97913.30;108065;1272;59738;-65
2021/11/20 00:39:29;;;;;;;31.80;18.30;;;;;;;3.43;84.24;97907.98;107943;1275;71581;-66
2021/11/20 00:42:00;;;;;;;46.30;26.00;;;;;;;3.43;84.38;97904.52;107900;1276;68674;-65
2021/11/20 00:44:30;;;;;;;38.00;21.80;;;;;;;3.42;84.22;97905.40;108155;1272;68789;-66
2021/11/20 00:47:00;;;;;;;44.50;25.60;;;;;;;3.42;84.48;97900.23;107971;1275;59783;-66
2021/11/20 00:49:30;;;;;;;43.60;24.80;;;;;;;3.42;84.47;97902.66;108065;1272;59776;-65
2021/11/20 00:51:59;;;;;;;43.40;24.70;;;;;;;3.41;84.40;97899.92;108008;1275;71582;-66
2021/11/20 00:54:29;;;;;;;44.10;24.20;;;;;;;3.40;84.47;97893.23;108016;1271;68492;-65
2021/11/20 00:56:59;;;;;;;44.90;26.90;;;;;;;3.40;84.58;97890.13;108063;1274;68438;-65
2021/11/20 00:59:28;;;;;;;33.80;20.30;;;;;;;3.37;84.64;97883.20;107821;1275;59782;-65
2021/11/20 01:02:00;;;;;;;25.00;15.50;;;;;;;3.36;84.96;97886.48;107962;1272;59697;-65
2021/11/20 01:04:32;;;;;;;24.80;16.00;;;;;;;3.39;85.15;97888.11;107985;1273;71589;-66
2021/11/20 01:07:03;;;;;;;30.90;18.80;;;;;;;3.42;85.23;97888.70;108026;1272;67903;-65
2021/11/20 01:09:44;;;;;;;27.10;16.10;;;;;;;3.45;85.17;97883.23;107715;1272;68449;-65
2021/11/20 01:12:19;;;;;;;45.80;24.40;;;;;;;3.47;84.91;97878.86;107955;1274;59725;-65
2021/11/20 01:14:50;;;;;;;62.40;31.00;;;;;;;3.46;84.62;97879.75;107988;1272;59809;-65
2021/11/20 01:17:23;;;;;;;59.30;31.10;;;;;;;3.41;84.84;97880.97;108030;1275;70561;-66
2021/11/20 01:19:54;;;;;;;30.50;17.20;;;;;;;3.39;85.08;97877.41;107824;1275;68596;-65
2021/11/20 01:22:37;;;;;;;49.60;26.50;;;;;;;3.38;85.19;97875.93;108057;1271;70145;-65
2021/11/20 01:25:18;;;;;;;49.20;24.70;;;;;;;3.38;85.37;97875.26;107937;1276;59802;-65
2021/11/20 01:28:11;;;;;;;26.10;15.10;;;;;;;3.35;85.52;97870.17;107849;1275;59729;-65
2021/11/20 01:30:49;;;;;;;26.40;14.90;;;;;;;3.35;85.67;97865.52;107847;1275;71421;-66
2021/11/20 01:33:24;;;;;;;29.20;17.10;;;;;;;3.37;85.58;97867.67;107936;1276;68635;-66
2021/11/20 01:35:54;;;;;;;28.60;18.80;;;;;;;3.41;85.67;97864.79;108017;1272;68670;-65
2021/11/20 01:38:25;;;;;;;27.10;16.30;;;;;;;3.43;85.68;97864.20;107993;1275;59799;-65
2021/11/20 01:40:57;;;;;;;19.10;10.90;;;;;;;3.46;85.64;97865.45;107975;1272;59665;-65
2021/11/20 01:43:40;;;;;;;33.80;20.20;;;;;;;3.49;85.67;97863.60;108002;1272;70844;-67
2021/11/20 01:46:17;;;;;;;24.50;14.80;;;;;;;3.51;85.60;97864.58;108101;1272;67838;-66
2021/11/20 01:49:11;;;;;;;32.40;19.30;;;;;;;3.52;85.78;97862.66;108031;1272;69393;-65
2021/11/20 01:51:54;;;;;;;18.30;10.80;;;;;;;3.53;85.97;97863.48;107933;1276;59783;-66
2021/11/20 01:54:54;;;;;;;10.80;7.00;;;;;;;3.55;85.65;97862.17;108052;1275;59719;-66
2021/11/20 01:58:24;;;;;;;18.50;10.50;;;;;;;3.59;85.28;97859.98;107960;1272;70841;-66
2021/11/20 02:01:26;;;;;;;20.30;13.00;;;;;;;3.61;85.33;97859.23;107885;1273;68722;-66
2021/11/20 02:04:33;;;;;;;19.50;11.00;;;;;;;3.61;85.20;97856.14;107994;1276;69506;-64
2021/11/20 02:07:20;;;;;;;18.20;10.70;;;;;;;3.62;84.95;97850.39;107982;1272;59745;-66
2021/11/20 02:09:58;;;;;;;21.70;13.00;;;;;;;3.62;84.88;97849.36;108048;1275;59707;-66
2021/11/20 02:12:50;;;;;;;17.90;11.60;;;;;;;3.62;84.86;97847.80;108013;1275;71656;-67
2021/11/20 02:15:41;;;;;;;22.00;13.80;;;;;;;3.63;85.01;97842.96;108062;1275;67944;-67
2021/11/20 02:18:12;;;;;;;18.90;12.50;;;;;;;3.61;85.07;97845.09;107960;1272;68897;-67
2021/11/20 02:20:54;;;;;;;20.20;14.80;;;;;;;3.63;85.32;97842.78;108059;1275;59781;-66
2021/11/20 02:23:37;;;;;;;26.60;15.50;;;;;;;3.65;85.37;97838.39;108053;1275;59719;-66
2021/11/20 02:26:07;;;;;;;24.10;15.90;;;;;;;3.65;84.95;97837.52;107993;1275;70992;-66
2021/11/20 02:28:51;;;;;;;22.50;14.00;;;;;;;3.64;85.30;97840.64;108028;1275;68559;-66
2021/11/20 02:31:48;;;;;;;27.70;17.60;;;;;;;3.67;85.44;97839.66;107940;1275;68468;-66
2021/11/20 02:34:20;;;;;;;19.80;11.70;;;;;;;3.69;85.37;97836.85;108062;1272;59776;-66
2021/11/20 02:36:50;;;;;;;25.00;15.90;;;;;;;3.70;85.23;97832.84;107999;1275;59728;-67
2021/11/20 02:39:23;;;;;;;17.20;11.10;;;;;;;3.72;85.02;97828.97;107910;1276;71726;-67
2021/11/20 02:41:57;;;;;;;20.70;12.20;;;;;;;3.72;84.69;97827.73;107936;1274;68646;-66
2021/11/20 02:44:28;;;;;;;11.80;8.20;;;;;;;3.73;84.75;97821.85;108030;1275;69450;-67
2021/11/20 02:47:03;;;;;;;22.50;13.90;;;;;;;3.73;84.80;97822.38;107904;1275;59665;-66
2021/11/20 02:49:33;;;;;;;19.80;11.50;;;;;;;3.72;84.87;97821.02;108068;1274;59700;-67
2021/11/20 02:52:19;;;;;;;19.00;11.70;;;;;;;3.73;85.12;97824.64;107985;1275;71423;-66
2021/11/20 02:54:50;;;;;;;17.90;10.90;;;;;;;3.70;85.10;97821.12;107983;1276;68665;-66
2021/11/20 02:57:28;;;;;;;21.90;12.50;;;;;;;3.68;85.31;97817.56;107954;1275;69441;-67
2021/11/20 02:59:58;;;;;;;23.30;14.10;;;;;;;3.67;85.66;97811.77;107958;1275;59749;-66
2021/11/20 03:02:31;;;;;;;28.20;16.80;;;;;;;3.66;85.37;97807.66;108035;1272;59723;-66
2021/11/20 03:05:03;;;;;;;43.90;25.90;;;;;;;3.63;85.24;97805.52;107976;1276;71545;-66
2021/11/20 03:07:33;;;;;;;25.40;14.80;;;;;;;3.62;85.30;97803.84;108077;1272;67587;-67
2021/11/20 03:10:04;;;;;;;44.80;24.00;;;;;;;3.62;85.41;97799.02;107984;1272;68998;-66
2021/11/20 03:12:34;;;;;;;35.10;20.70;;;;;;;3.61;85.58;97795.81;108038;1276;59779;-67
2021/11/20 03:15:05;;;;;;;;;;;;;;;3.61;85.60;97794.76;108020;1275;59786;-66
2021/11/20 03:17:43;;;;;;;26.50;14.50;;;;;;;3.60;85.83;97789.45;107849;1275;71828;-66
2021/11/20 03:20:18;;;;;;;27.70;15.80;;;;;;;3.58;85.83;97790.20;107977;1272;67896;-66
2021/11/20 03:22:59;;;;;;;23.20;14.10;;;;;;;3.56;85.81;97787.53;107971;1275;69814;-66
2021/11/20 03:25:36;;;;;;;21.60;13.20;;;;;;;3.52;85.81;97787.14;108041;1275;59841;-66
2021/11/20 03:28:05;;;;;;;29.90;19.10;;;;;;;3.49;85.92;97788.80;107986;1273;59725;-67
2021/11/20 03:30:36;;;;;;;23.10;12.90;;;;;;;3.49;86.07;97786.92;107986;1272;70647;-67
2021/11/20 03:33:08;;;;;;;18.10;11.20;;;;;;;3.50;85.95;97784.64;107957;1272;67603;-66
2021/11/20 03:35:37;;;;;;;21.90;12.90;;;;;;;3.48;86.00;97779.38;108001;1272;69326;-67
2021/11/20 03:38:19;;;;;;;23.70;13.80;;;;;;;3.48;86.07;97770.23;107990;1276;59778;-66
2021/11/20 03:40:49;;;;;;;21.60;13.30;;;;;;;3.49;86.26;97770.73;107980;1275;59723;-67
2021/11/20 03:43:21;;;;;;;32.00;20.10;;;;;;;3.47;86.25;97774.60;107979;1276;69943;-66
2021/11/20 03:45:52;;;;;;;38.40;24.20;;;;;;;3.48;86.22;97776.48;108038;1276;68442;-66
2021/11/20 03:48:22;;;;;;;41.60;23.60;;;;;;;3.49;86.20;97780.40;108028;1276;67944;-66
2021/11/20 03:50:52;;;;;;;35.90;21.10;;;;;;;3.49;86.27;97784.51;107978;1275;59793;-67
2021/11/20 03:53:21;;;;;;;36.90;22.50;;;;;;;3.51;86.32;97789.78;108002;1276;59776;-66
2021/11/20 03:55:51;;;;;;;30.60;17.80;;;;;;;3.52;86.32;97786.99;107958;1276;71591;-67
2021/11/20 03:58:23;;;;;;;24.50;14.60;;;;;;;3.54;86.58;97783.28;108041;1276;68606;-66
2021/11/20 04:01:05;;;;;;;26.40;16.40;;;;;;;3.57;86.52;97772.82;108003;1275;67755;-67
2021/11/20 04:03:37;;;;;;;12.30;7.20;;;;;;;3.61;86.58;97769.25;108028;1272;59713;-66
2021/11/20 04:06:12;;;;;;;18.50;11.40;;;;;;;3.64;86.46;97770.33;108063;1276;59738;-64
2021/11/20 04:08:45;;;;;;;18.40;10.70;;;;;;;3.66;86.27;97777.34;108021;1276;69747;-65
2021/11/20 04:11:27;;;;;;;19.70;13.40;;;;;;;3.67;86.39;97771.42;107948;1276;68739;-65
2021/11/20 04:13:58;;;;;;;18.70;11.80;;;;;;;3.70;86.48;97773.21;107836;1273;67841;-65
2021/11/20 04:16:31;;;;;;;13.90;7.90;;;;;;;3.71;86.55;97779.17;107847;1275;59687;-64
2021/11/20 04:19:02;;;;;;;20.90;14.80;;;;;;;3.74;86.58;97780.96;107887;1274;59839;-65
2021/11/20 04:21:33;;;;;;;29.50;18.20;;;;;;;3.76;86.55;97780.21;107884;1275;71648;-65
2021/11/20 04:24:05;;;;;;;18.50;12.80;;;;;;;3.77;86.53;97777.41;107819;1276;68426;-64
2021/11/20 04:26:53;;;;;;;22.60;13.60;;;;;;;3.78;86.17;97770.77;107919;1272;68968;-65
2021/11/20 04:29:25;;;;;;;18.60;12.10;;;;;;;3.77;86.28;97761.02;107833;1272;59753;-64
2021/11/20 04:31:57;;;;;;;28.90;17.10;;;;;;;3.78;85.99;97761.30;107882;1277;59649;-65
2021/11/20 04:34:27;;;;;;;25.00;15.80;;;;;;;3.77;86.02;97762.05;107881;1276;71377;-65
2021/11/20 04:36:57;;;;;;;23.10;13.30;;;;;;;3.73;86.23;97758.94;107769;1274;66949;-66
2021/11/20 04:39:28;;;;;;;22.60;14.60;;;;;;;3.69;86.39;97762.54;108034;1272;69459;-66
2021/11/20 04:41:57;;;;;;;29.50;17.50;;;;;;;3.69;86.51;97770.66;107992;1275;59822;-67
2021/11/20 04:44:28;;;;;;;29.20;18.40;;;;;;;3.69;86.67;97771.35;108040;1272;59735;-67
2021/11/20 04:46:57;;;;;;;18.60;11.30;;;;;;;3.69;86.58;97771.00;108024;1271;71608;-67
2021/11/20 04:49:27;;;;;;;26.50;18.00;;;;;;;3.71;86.68;97768.36;108018;1275;68688;-67
2021/11/20 04:51:57;;;;;;;41.20;23.10;;;;;;;3.72;86.56;97767.59;107998;1276;68934;-66
2021/11/20 04:54:29;;;;;;;36.60;21.70;;;;;;;3.74;86.29;97772.02;108081;1276;59704;-66
2021/11/20 04:56:58;;;;;;;34.90;22.00;;;;;;;3.74;86.17;97769.22;107991;1276;59744;-66
2021/11/20 04:59:27;;;;;;;32.00;19.80;;;;;;;3.75;85.97;97764.39;108002;1276;71430;-65
2021/11/20 05:01:58;;;;;;;25.60;16.20;;;;;;;3.75;86.21;97762.29;108022;1275;68673;-66
2021/11/20 05:04:29;;;;;;;15.00;9.80;;;;;;;3.79;86.37;97763.88;108038;1275;69453;-66
2021/11/20 05:06:58;;;;;;;17.30;11.10;;;;;;;3.81;86.47;97762.77;107984;1272;59759;-65
2021/11/20 05:09:28;;;;;;;22.50;15.00;;;;;;;3.84;86.58;97767.30;107774;1276;59681;-65
2021/11/20 05:11:59;;;;;;;20.20;12.80;;;;;;;3.86;86.52;97772.58;107967;1276;70971;-66
2021/11/20 05:14:30;;;;;;;15.20;10.50;;;;;;;3.87;86.51;97766.29;107965;1272;67864;-67
2021/11/20 05:17:00;;;;;;;12.10;7.70;;;;;;;3.89;86.42;97763.80;107987;1272;69324;-65
2021/11/20 05:19:29;;;;;;;16.30;12.10;;;;;;;3.93;86.38;97768.83;107922;1275;59779;-65
2021/11/20 05:22:00;;;;;;;15.80;9.50;;;;;;;3.95;86.34;97770.67;107995;1276;59773;-66
2021/11/20 05:24:32;;;;;;;15.10;10.40;;;;;;;3.97;86.33;97767.95;108005;1276;71564;-65
2021/11/20 05:27:02;;;;;;;12.70;8.00;;;;;;;3.98;86.36;97771.71;107886;1276;67713;-66
2021/11/20 05:32:06;;;;;;;11.70;7.50;;;;;;;4.03;86.14;97763.77;107988;1275;59859;-65
2021/11/20 05:34:39;;;;;;;15.50;9.40;;;;;;;4.04;86.13;97766.65;108006;1272;59690;-65
2021/11/20 05:37:08;;;;;;;11.00;8.10;;;;;;;4.05;86.14;97764.71;108039;1276;71221;-65
2021/11/20 05:39:38;;;;;;;15.20;10.80;;;;;;;4.05;85.97;97768.13;108028;1275;69190;-65
2021/11/20 05:42:09;;;;;;;15.90;10.80;;;;;;;4.06;85.94;97771.20;107946;1276;70115;-65
2021/11/20 05:44:39;;;;;;;15.90;8.70;;;;;;;4.08;85.98;97775.12;107978;1276;59763;-65
2021/11/20 05:47:12;;;;;;;11.40;8.20;;;;;;;4.08;86.00;97780.44;108027;1272;59735;-66
2021/11/20 05:49:42;;;;;;;16.50;10.90;;;;;;;4.11;86.11;97786.39;107754;1276;71553;-65
2021/11/20 05:52:15;;;;;;;12.60;7.80;;;;;;;4.12;86.07;97784.98;107949;1275;68621;-65
2021/11/20 05:54:45;;;;;;;12.60;8.20;;;;;;;4.12;86.12;97788.77;107949;1275;68674;-67
2021/11/20 05:57:23;;;;;;;11.00;7.70;;;;;;;4.13;86.14;97792.17;108093;1275;59696;-65
2021/11/20 06:00:07;;;;;;;11.80;7.90;;;;;;;4.15;86.30;97795.73;107919;1275;59779;-65
2021/11/20 06:02:53;;;;;;;16.10;10.40;;;;;;;4.17;86.74;97792.52;108042;1276;72041;-66
2021/11/20 06:05:31;;;;;;;15.90;9.70;;;;;;;4.18;87.11;97790.92;108051;1276;68596;-66
2021/11/20 06:08:00;;;;;;;13.30;8.00;;;;;;;4.19;87.09;97790.89;108007;1272;69553;-67
2021/11/20 06:10:31;;;;;;;15.30;9.00;;;;;;;4.20;86.93;97784.98;107930;1276;59774;-65
2021/11/20 06:13:00;;;;;;;22.00;12.80;;;;;;;4.18;87.12;97785.73;108014;1276;60488;-65
2021/11/20 06:15:31;;;;;;;24.00;14.80;;;;;;;4.19;86.83;97789.67;107520;1275;581198;-65
2021/11/20 06:18:04;;;;;;;24.70;15.20;;;;;;;4.18;86.51;97787.64;107944;1275;68158;-65
2021/11/20 06:20:35;;;;;;;14.50;9.10;;;;;;;4.17;86.23;97791.66;107932;1276;69448;-65
2021/11/20 06:23:28;;;;;;;16.80;10.40;;;;;;;4.18;86.17;97795.06;107994;1275;59770;-65
2021/11/20 06:26:04;;;;;;;20.20;11.20;;;;;;;4.19;86.07;97791.39;108006;1274;59712;-66
2021/11/20 06:28:35;;;;;;;29.20;16.20;;;;;;;4.21;86.07;97797.36;108012;1275;71571;-65
2021/11/20 06:31:06;;;;;;;28.00;16.30;;;;;;;4.22;86.09;97801.11;107965;1275;68644;-65
2021/11/20 06:33:38;;;;;;;23.30;12.90;;;;;;;4.22;86.20;97802.67;108098;1275;69274;-66
2021/11/20 06:36:25;;;;;;;26.40;15.50;;;;;;;4.22;86.35;97802.98;108040;1272;59784;-65
2021/11/20 06:39:03;;;;;;;20.30;12.20;;;;;;;4.22;86.27;97808.04;108026;1276;59740;-65
2021/11/20 06:41:35;;;;;;;23.10;14.50;;;;;;;4.21;86.27;97814.95;107994;1273;71726;-65
2021/11/20 06:44:05;;;;;;;18.80;11.90;;;;;;;4.22;86.36;97816.83;108014;1276;68690;-65
2021/11/20 06:46:34;;;;;;;23.50;14.30;;;;;;;4.22;86.36;97818.02;107873;1275;70060;-66
2021/11/20 06:49:05;;;;;;;20.20;13.90;;;;;;;4.23;86.33;97809.17;108015;1275;59777;-65
2021/11/20 06:51:43;;;;;;;19.60;12.90;;;;;;;4.25;86.44;97807.37;108004;1276;59777;-64
2021/11/20 06:54:42;;;;;;;24.50;16.30;;;;;;;4.26;86.49;97807.67;107681;1278;71042;-65
2021/11/20 07:00:29;;;;;;;37.70;20.80;;;;;;;4.29;86.50;97822.37;108071;1272;69611;-66
2021/11/20 07:03:54;;;;;;;24.90;14.20;;;;;;;4.31;86.49;97830.42;107620;1280;60039;-64
2021/11/20 07:06:33;;;;;;;39.80;23.30;;;;;;;4.33;86.71;97832.04;107761;1280;59735;-67
2021/11/20 07:09:02;;;;;;;26.30;16.10;;;;;;;4.32;86.87;97834.48;107911;1276;71417;-66
2021/11/20 07:11:31;;;;;;;31.00;18.60;;;;;;;4.32;86.96;97833.45;107799;1275;68060;-65
2021/11/20 07:14:01;;;;;;;46.40;25.50;;;;;;;4.35;86.87;97834.23;108028;1275;68802;-66
2021/11/20 07:16:31;;;;;;;30.20;20.70;;;;;;;4.35;87.02;97838.52;107984;1276;59773;-66
2021/11/20 07:19:01;;;;;;;39.80;23.40;;;;;;;4.37;86.92;97841.37;107843;1274;59715;-66
2021/11/20 07:21:49;;;;;;;47.60;25.30;;;;;;;4.39;87.26;97840.45;108074;1275;71547;-67
2021/11/20 07:24:40;;;;;;;42.00;23.50;;;;;;;4.41;87.30;97842.08;108003;1275;68586;-66
2021/11/20 07:27:10;;;;;;;36.10;20.60;;;;;;;4.43;87.44;97840.61;107970;1276;69456;-66
2021/11/20 07:29:39;;;;;;;24.80;14.60;;;;;;;4.45;87.81;97846.05;108007;1272;59732;-67
2021/11/20 07:32:08;;;;;;;22.70;13.60;;;;;;;4.49;87.68;97851.59;107944;1276;59775;-64
2021/11/20 07:34:39;;;;;;;32.90;18.00;;;;;;;4.54;87.61;97847.91;107991;1274;70731;-65
2021/11/20 07:37:08;;;;;;;22.30;12.50;;;;;;;4.59;87.81;97845.98;108002;1276;68662;-65
2021/11/20 07:39:39;;;;;;;28.80;18.30;;;;;;;4.63;87.75;97854.30;107884;1275;69481;-65
2021/11/20 07:42:08;;;;;;;20.20;10.70;;;;;;;4.66;87.60;97854.50;107971;1275;60174;-65
2021/11/20 07:45:02;;;;;;;27.20;15.30;;;;;;;4.71;87.45;97859.30;107970;1275;59742;-66
2021/11/20 07:47:37;;;;;;;31.30;18.30;;;;;;;4.72;87.55;97859.61;108003;1275;71369;-66
2021/11/20 07:50:06;;;;;;;26.30;15.30;;;;;;;4.76;87.24;97858.41;108029;1276;68616;-67
2021/11/20 07:52:35;;;;;;;25.00;14.60;;;;;;;4.79;87.14;97854.15;108051;1272;68676;-64
2021/11/20 07:55:06;;;;;;;30.50;16.10;;;;;;;4.80;87.11;97855.80;108026;1275;59710;-64
2021/11/20 07:57:53;;;;;;;22.70;14.10;;;;;;;4.80;87.35;97857.70;108058;1272;59697;-65
2021/11/20 08:00:29;;;;;;;33.90;18.60;;;;;;;4.84;87.40;97853.23;108117;1272;71660;-65
2021/11/20 08:03:07;;;;;;;21.80;12.10;;;;;;;4.84;87.19;97852.55;107989;1276;68805;-66
2021/11/20 08:05:53;;;;;;;34.40;20.80;;;;;;;4.86;87.06;97840.19;108028;1276;69579;-65
2021/11/20 08:08:48;;;;;;;32.30;18.70;;;;;;;4.90;86.90;97829.98;107960;1275;59801;-65
2021/11/20 08:11:25;;;;;;;27.80;15.90;;;;;;;4.90;86.95;97835.88;107947;1276;59759;-65
2021/11/20 08:13:54;;;;;;;31.50;16.50;;;;;;;4.91;87.00;97840.65;108053;1276;71405;-65
2021/11/20 08:16:29;;;;;;;32.50;18.70;;;;;;;4.96;86.94;97848.73;108037;1276;68937;-65
2021/11/20 08:19:34;;;;;;;24.00;13.50;;;;;;;4.97;86.73;97845.04;107690;1281;69312;-65
2021/11/20 08:22:17;;;;;;;28.90;17.70;;;;;;;4.96;86.69;97846.49;107968;1276;59726;-67
2021/11/20 08:24:46;;;;;;;19.00;11.50;;;;;;;4.98;86.68;97847.77;107840;1277;59751;-67
2021/11/20 08:27:17;;;;;;;36.60;20.40;;;;;;;5.03;86.63;97847.06;108016;1276;71673;-68
2021/11/20 08:29:52;;;;;;;25.00;16.80;;;;;;;5.06;86.60;97849.34;107988;1272;68089;-64
2021/11/20 08:32:22;;;;;;;34.60;21.50;;;;;;;5.09;86.52;97845.37;107993;1276;69248;-68
2021/11/20 08:35:10;;;;;;;23.90;14.00;;;;;;;5.14;86.36;97848.84;107631;1275;59726;-64
2021/11/20 08:38:17;;;;;;;34.80;20.80;;;;;;;5.15;86.39;97842.57;108039;1272;59729;-64
2021/11/20 08:41:13;;;;;;;36.80;21.50;;;;;;;5.12;86.52;97848.89;107962;1276;69720;-65
2021/11/20 08:43:45;;;;;;;36.80;19.70;;;;;;;5.13;86.44;97848.52;107984;1274;68096;-64
2021/11/20 08:46:26;;;;;;;40.90;22.50;;;;;;;5.11;86.53;97854.65;107976;1275;68757;-67
2021/11/20 08:48:56;;;;;;;38.30;21.70;;;;;;;5.10;86.51;97854.00;107939;1275;59703;-64
2021/11/20 08:51:26;;;;;;;35.50;21.20;;;;;;;5.11;86.57;97859.83;107989;1272;59759;-67
2021/11/20 08:54:00;;;;;;;40.90;24.10;;;;;;;5.08;86.59;97855.48;107931;1276;71662;-65
2021/11/20 08:56:31;;;;;;;39.90;22.00;;;;;;;5.06;86.66;97853.98;108006;1274;68137;-65
2021/11/20 08:59:11;;;;;;;39.70;21.70;;;;;;;5.08;86.86;97857.88;107955;1273;68849;-66
2021/11/20 09:02:20;;;;;;;;;;;;;;;5.10;86.83;97859.52;107975;1276;59712;-63
2021/11/20 09:05:14;;;;;;;34.90;20.50;;;;;;;5.12;87.00;97860.14;107839;1276;59751;-64
2021/11/20 09:07:52;;;;;;;24.40;13.10;;;;;;;5.19;86.75;97855.36;107778;1272;71582;-64
2021/11/20 09:10:28;;;;;;;16.90;10.60;;;;;;;5.26;86.72;97853.15;107838;1273;67858;-66
2021/11/20 09:13:08;;;;;;;30.30;17.80;;;;;;;5.31;86.67;97847.89;107913;1276;69540;-67
2021/11/20 09:15:52;;;;;;;31.30;18.50;;;;;;;5.36;86.38;97845.23;107940;1275;59801;-65
2021/11/20 09:18:24;;;;;;;28.00;18.10;;;;;;;5.41;86.23;97847.80;107945;1272;59725;-65
2021/11/20 09:20:55;;;;;;;;;;;;;;;5.44;86.09;97848.36;108099;1272;72124;-66
2021/11/20 09:23:51;;;;;;;34.00;21.30;;;;;;;5.44;85.92;97847.46;108013;1275;67910;-66
2021/11/20 09:26:30;;;;;;;36.60;20.90;;;;;;;5.43;85.96;97842.16;107996;1274;67697;-66
2021/11/20 09:29:01;;;;;;;26.00;17.20;;;;;;;5.43;86.04;97843.05;107910;1272;59713;-65
2021/11/20 09:31:33;;;;;;;22.60;12.00;;;;;;;5.41;86.27;97844.48;107943;1276;59724;-65
2021/11/20 09:34:03;;;;;;;31.60;16.20;;;;;;;5.45;86.37;97845.36;107953;1276;71592;-66
2021/11/20 09:36:34;;;;;;;24.60;14.70;;;;;;;5.48;86.15;97839.18;107996;1272;69178;-65
2021/11/20 09:39:13;;;;;;;25.40;14.50;;;;;;;5.51;86.08;97832.98;107924;1276;69217;-65
2021/11/20 09:42:00;;;;;;;41.50;23.60;;;;;;;5.52;85.82;97817.54;107941;1277;59786;-67
2021/11/20 09:44:40;;;;;;;44.90;26.20;;;;;;;5.50;85.61;97825.94;108009;1276;59774;-67
2021/11/20 09:47:50;;;;;;;50.50;26.60;;;;;;;5.43;85.90;97828.20;107875;1275;72038;-66
2021/11/20 09:50:30;;;;;;;51.50;27.80;;;;;;;5.39;86.16;97834.91;107533;1278;67764;-67
2021/11/20 09:53:02;;;;;;;44.80;26.40;;;;;;;5.33;86.31;97828.94;107609;1279;69370;-65
2021/11/20 09:55:40;;;;;;;39.20;22.90;;;;;;;5.33;86.57;97827.38;107393;1280;59773;-66
2021/11/20 09:58:18;;;;;;;48.50;26.30;;;;;;;5.31;86.82;97819.90;107488;1279;59795;-67
2021/11/20 10:00:55;;;;;;;47.20;27.20;;;;;;;5.32;87.00;97822.59;107561;1280;69661;-67
2021/11/20 10:03:45;;;;;;;48.20;27.30;;;;;;;5.34;87.09;97819.89;107559;1282;68749;-67
2021/11/20 10:06:20;;;;;;;38.40;22.00;;;;;;;5.36;87.07;97819.13;107605;1279;68620;-67
2021/11/20 10:08:49;;;;;;;45.60;26.00;;;;;;;5.39;87.02;97816.59;107648;1279;60109;-67
2021/11/20 10:11:24;;;;;;;29.90;17.70;;;;;;;5.43;87.15;97829.38;107645;1279;59799;-67
2021/11/20 10:14:10;;;;;;;32.70;20.10;;;;;;;5.45;87.17;97829.61;107713;1281;70918;-67
2021/11/20 10:16:53;;;;;;;36.90;21.30;;;;;;;5.51;86.94;97826.58;107666;1282;68587;-66
2021/11/20 10:19:36;;;;;;;41.20;25.00;;;;;;;5.58;86.69;97830.77;107572;1281;69421;-67
2021/11/20 10:22:08;;;;;;;40.60;23.80;;;;;;;5.57;86.62;97831.86;107785;1278;59810;-66
2021/11/20 10:24:37;;;;;;;37.30;23.30;;;;;;;5.57;86.59;97831.52;107949;1272;59707;-68
2021/11/20 10:27:24;;;;;;;36.70;20.60;;;;;;;5.54;86.73;97834.92;107949;1276;72284;-66
2021/11/20 10:30:32;;;;;;;34.90;20.90;;;;;;;5.57;86.63;97833.90;107846;1275;68443;-68
2021/11/20 10:33:17;;;;;;;27.40;17.00;;;;;;;5.60;86.59;97832.76;107834;1276;69970;-66
2021/11/20 10:36:04;;;;;;;29.50;16.20;;;;;;;5.59;86.53;97832.77;107923;1273;59796;-68
2021/11/20 10:38:44;;;;;;;33.80;19.70;;;;;;;5.60;86.83;97835.70;107947;1277;59786;-67
2021/11/20 10:41:21;;;;;;;35.30;22.00;;;;;;;5.63;86.91;97829.69;107961;1276;72339;-67
2021/11/20 10:44:26;;;;;;;32.00;19.10;;;;;;;5.67;86.65;97822.08;107975;1276;68614;-66
2021/11/20 10:47:11;;;;;;;44.30;28.10;;;;;;;5.68;86.72;97816.29;107944;1272;69249;-68
2021/11/20 10:49:51;;;;;;;39.10;23.30;;;;;;;5.67;86.73;97820.83;107962;1275;59794;-66
2021/11/20 10:52:54;;;;;;;33.90;20.50;;;;;;;5.69;86.84;97822.66;107961;1276;59784;-67
2021/11/20 10:55:40;;;;;;;49.20;28.90;;;;;;;5.71;86.72;97818.58;107967;1273;70741;-67
2021/11/20 10:58:22;;;;;;;76.90;43.60;;;;;;;5.72;87.17;97815.09;107977;1276;68409;-66
2021/11/20 11:01:02;;;;;;;66.80;38.80;;;;;;;5.76;86.95;97817.84;107965;1275;68827;-67
2021/11/20 11:03:35;;;;;;;44.80;27.30;;;;;;;5.74;86.99;97818.77;108007;1272;59777;-66
2021/11/20 11:06:32;;;;;;;45.20;27.60;;;;;;;5.76;86.87;97823.02;107950;1276;59733;-67
2021/11/20 11:09:12;;;;;;;38.10;23.60;;;;;;;5.75;86.76;97822.23;107986;1275;70839;-66
2021/11/20 11:11:45;;;;;;;42.30;24.80;;;;;;;5.72;86.92;97821.13;107828;1276;67919;-67
2021/11/20 11:14:50;;;;;;;41.60;22.50;;;;;;;5.70;86.97;97820.02;107734;1276;70036;-66
2021/11/20 11:17:46;;;;;;;40.10;25.20;;;;;;;5.70;87.11;97814.33;107459;1283;59845;-66
2021/11/20 11:20:36;;;;;;;36.50;22.70;;;;;;;5.72;87.12;97814.90;107944;1276;59698;-66
2021/11/20 11:23:14;;;;;;;41.30;23.90;;;;;;;5.73;86.94;97814.16;107972;1272;71558;-66
2021/11/20 11:25:53;;;;;;;39.30;23.10;;;;;;;5.73;87.15;97814.30;107938;1275;68637;-65
2021/11/20 11:28:30;;;;;;;37.20;22.00;;;;;;;5.73;87.21;97811.56;107896;1272;69252;-67
2021/11/20 11:31:21;;;;;;;37.50;22.20;;;;;;;5.71;87.25;97811.52;108001;1273;59825;-68
2021/11/20 11:33:54;;;;;;;69.70;38.70;;;;;;;5.74;87.29;97809.29;108046;1272;59764;-68
2021/11/20 11:36:42;;;;;;;78.20;46.80;;;;;;;5.73;87.41;97802.59;107991;1269;71011;-67
2021/11/20 11:39:33;;;;;;;65.10;39.50;;;;;;;5.73;87.65;97806.02;107934;1272;68417;-67
2021/11/20 11:42:25;;;;;;;61.50;36.80;;;;;;;5.74;87.76;97799.73;107959;1276;69994;-66
2021/11/20 11:45:03;;;;;;;67.20;40.20;;;;;;;5.75;87.89;97783.63;107977;1275;59771;-68
2021/11/20 11:47:58;;;;;;;86.90;50.30;;;;;;;5.81;87.91;97776.27;107990;1272;59786;-69
2021/11/20 11:51:00;;;;;;;81.70;44.40;;;;;;;5.80;88.10;97769.04;107913;1272;70750;-70
2021/11/20 11:53:58;;;;;;;45.50;27.50;;;;;;;5.75;88.41;97783.65;108040;1273;66893;-68
2021/11/20 11:56:40;;;;;;;55.40;34.00;;;;;;;5.74;88.40;97791.83;107938;1275;69450;-67
2021/11/20 11:59:39;;;;;;;61.00;35.80;;;;;;;5.74;88.33;97786.79;108003;1272;59751;-68
2021/11/20 12:02:15;;;;;;;54.40;31.30;;;;;;;5.78;88.20;97790.41;108030;1272;59746;-70
2021/11/20 12:04:52;;;;;;;52.30;29.40;;;;;;;5.80;88.25;97789.61;107995;1276;72014;-66
2021/11/20 12:07:46;;;;;;;56.00;31.60;;;;;;;5.83;88.41;97791.02;107942;1272;68601;-67
2021/11/20 12:10:35;;;;;;;55.10;31.30;;;;;;;5.84;88.38;97792.00;107968;1272;70013;-68
2021/11/20 12:13:10;;;;;;;47.70;28.30;;;;;;;5.87;88.29;97789.95;108047;1272;59704;-67
2021/11/20 12:16:06;;;;;;;47.60;24.40;;;;;;;5.88;88.27;97789.92;107959;1275;59733;-66